Main page
METAR-TAF:

METAR-TAF

Airports :

Imperial Municipal Airport

Imperial, Nebraska, United States

latitude: 40-31N, longitude: 101-37W, elevation: 3270 ft

Current weather observation

The report was made 32 minutes ago, at 01:53 UTC
Wind 8 mph from the Northeast
Temperature 27°F
Humidity 63%
Pressure 30.27 in. Hg
Visibility: 10 miles
Clear sky

METAR: KIML 250153Z AUTO 04007KT 10SM CLR M03/M09 A3027 RMK AO2 SLP287 T10281089

Time: 19:25 (02:25 UTC)


TAF: missing

Weather observations and forecasts of more than 4000 airports (METAR and TAF reports).

The available stations are represented by yellow and red dots on the map.

Hover mouse over dot to see the name of the station.

Then click to see weather observations and forecasts.

To change the map : click on the green buttons with a black cross to zoom in, on the green button with a dash to zoom out, or on the green arrows for adjacent maps.


METAR-TAF: